Time;durP1;ratioP1;P1;durP2;ratioP2;P2;SDS_P1;SDS_P2;PMS_P1;PMS_P2;Temp;Humidity;BMP_temperature;BMP_pressure;BME280_temperature;BME280_humidity;BME280_pressure;Samples;Min_cycle;Max_cycle;Signal;HPM_P1;HPM_P2
2022/10/26 00:20:38;;;;;;;41.53;28.83;;;12.20;99.90;;;;;;4777314;29;20220;-84
2022/10/26 00:40:55;;;;;;;42.33;28.30;;;12.40;99.90;;;;;;4793182;29;20208;-86
2022/10/26 01:06:15;;;;;;;40.40;27.37;;;12.80;99.90;;;;;;4787876;29;20647;-84
2022/10/26 01:31:34;;;;;;;37.63;25.83;;;12.60;99.90;;;;;;4986235;28;20312;-86
2022/10/26 02:07:00;;;;;;;38.07;26.50;;;12.50;99.90;;;;;;4907081;28;20536;-82
2022/10/26 02:37:02;;;;;;;39.67;28.60;;;12.60;99.90;;;;;;4845614;28;20540;-85
2022/10/26 03:07:36;;;;;;;36.77;24.87;;;12.50;99.90;;;;;;4777388;29;20543;-84
2022/10/26 03:58:50;;;;;;;42.43;26.00;;;12.40;99.90;;;;;;4825069;29;20206;-84
2022/10/26 04:24:12;;;;;;;45.30;28.17;;;12.30;99.90;;;;;;4843893;28;20213;-84
2022/10/26 04:28:33;;;;;;;41.07;26.37;;;12.20;99.90;;;;;;4551246;29;20538;-77
2022/10/26 04:58:47;;;;;;;44.50;27.97;;;12.20;99.90;;;;;;4527570;30;20225;-78
2022/10/26 05:14:19;;;;;;;36.83;24.40;;;12.00;99.90;;;;;;4464146;30;20235;-74
2022/10/26 05:18:29;;;;;;;38.77;25.60;;;12.10;99.90;;;;;;4375821;30;21147;-76
2022/10/26 06:19:55;;;;;;;26.67;18.13;;;12.40;99.90;;;;;;4482120;30;20629;-79
2022/10/26 07:00:35;;;;;;;20.90;14.47;;;12.90;99.90;;;;;;4819889;28;20201;-78
2022/10/26 07:31:04;;;;;;;28.50;17.50;;;13.30;99.90;;;;;;4643655;29;20237;-78
2022/10/26 08:05:54;;;;;;;25.47;18.00;;;13.40;99.70;;;;;;4760443;28;21149;-76
2022/10/26 08:36:18;;;;;;;18.77;13.70;;;13.20;99.10;;;;;;4570563;29;20744;-76
2022/10/26 09:02:02;;;;;;;22.30;15.67;;;13.20;99.90;;;;;;4553744;29;21450;-76
2022/10/26 09:22:13;;;;;;;21.57;14.10;;;13.40;99.90;;;;;;4484793;29;21233;-77
2022/10/26 09:57:32;;;;;;;16.57;11.83;;;14.00;98.80;;;;;;4559222;29;20523;-76
2022/10/26 10:23:29;;;;;;;15.27;11.57;;;14.60;94.50;;;;;;4630541;29;20223;-76
2022/10/26 10:53:44;;;;;;;15.87;11.67;;;14.80;95.10;;;;;;4558574;29;20350;-76
2022/10/26 11:39:24;;;;;;;15.87;11.43;;;15.20;92.50;;;;;;4622978;29;20252;-77
2022/10/26 12:14:54;;;;;;;17.43;12.27;;;15.20;93.10;;;;;;4751383;28;20440;-76
2022/10/26 12:45:04;;;;;;;17.63;13.17;;;15.00;94.90;;;;;;4642325;28;20462;-86
2022/10/26 13:15:27;;;;;;;18.27;13.23;;;14.30;98.50;;;;;;4759935;29;20649;-83
2022/10/26 13:41:03;;;;;;;18.47;11.77;;;14.40;95.80;;;;;;4639738;30;20578;-83
2022/10/26 14:46:44;;;;;;;19.63;11.90;;;13.30;99.80;;;;;;4675862;30;20262;-85
2022/10/26 15:17:04;;;;;;;17.77;11.73;;;12.80;99.90;;;;;;6014798;23;21022;31
2022/10/26 15:57:12;;;;;;;20.70;13.50;;;11.50;99.90;;;;;;4786338;29;20673;-86
2022/10/26 16:22:39;;;;;;;24.30;14.73;;;10.50;99.90;;;;;;4720649;30;20206;-85
2022/10/26 16:45:20;;;;;;;29.07;16.33;;;9.70;99.90;;;;;;4862067;29;20482;-86
2022/10/26 17:00:54;;;;;;;22.87;13.27;;;9.30;99.90;;;;;;5931291;23;20190;31
2022/10/26 17:26:37;;;;;;;26.63;15.90;;;8.70;99.90;;;;;;4680870;30;20244;-86
2022/10/26 17:56:23;;;;;;;43.53;23.47;;;8.60;99.90;;;;;;4638593;30;20703;-83
2022/10/26 18:16:56;;;;;;;32.30;16.63;;;8.40;99.90;;;;;;4658023;30;20617;-86
2022/10/26 18:52:04;;;;;;;31.83;19.20;;;8.10;99.90;;;;;;4722544;30;21147;-85
2022/10/26 19:17:27;;;;;;;50.83;26.07;;;7.60;99.90;;;;;;4635278;30;20234;-86
2022/10/26 19:42:56;;;;;;;57.33;29.03;;;7.60;99.90;;;;;;4631320;30;20230;-88
2022/10/26 20:13:17;;;;;;;70.30;44.40;;;8.70;99.90;;;;;;4590014;30;20622;-86
2022/10/26 20:29:06;;;;;;;71.10;43.17;;;8.90;99.90;;;;;;4657671;30;20231;-84
2022/10/26 21:04:38;;;;;;;66.97;40.57;;;8.10;99.90;;;;;;4687347;30;20239;-85
2022/10/26 21:30:06;;;;;;;71.00;41.67;;;7.70;99.90;;;;;;4620482;30;20220;-85
2022/10/26 21:34:26;;;;;;;71.50;42.20;;;7.60;99.90;;;;;;4638841;30;20264;-85
2022/10/26 22:00:30;;;;;;;121.53;60.37;;;7.20;99.90;;;;;;4657894;30;20216;-86
2022/10/26 22:25:20;;;;;;;112.87;71.00;;;7.00;99.90;;;;;;4603277;30;20532;-86
2022/10/26 23:31:16;;;;;;;78.33;47.10;;;6.40;99.90;;;;;;4844030;29;20217;-83
2022/10/26 23:56:53;;;;;;;75.80;44.63;;;6.10;99.90;;;;;;4793937;29;20232;-84
